createdAt,value
2022-10-06T00:00:05.131Z,98054.31
2022-10-06T00:01:11.465Z,98051.53
2022-10-06T00:02:13.828Z,98049.84
2022-10-06T00:03:15.560Z,98053.13
2022-10-06T00:04:17.081Z,98039.84
2022-10-06T00:05:18.622Z,98054.31
2022-10-06T00:06:20.132Z,98056.81
2022-10-06T00:07:21.735Z,98053.81
2022-10-06T00:08:23.366Z,98062.78
2022-10-06T00:09:24.920Z,98059.34
2022-10-06T00:10:26.645Z,98054.84
2022-10-06T00:11:28.214Z,98059.53
2022-10-06T00:12:29.770Z,98060.69
2022-10-06T00:13:31.876Z,98056.59
2022-10-06T00:14:33.551Z,98063.53
2022-10-06T00:15:35.563Z,98067.94
2022-10-06T00:16:37.168Z,98068.53
2022-10-06T00:17:40.136Z,98066.16
2022-10-06T00:18:41.713Z,98061.41
2022-10-06T00:19:43.224Z,98058.78
2022-10-06T00:20:44.879Z,98065.25
2022-10-06T00:21:46.566Z,98053.03
2022-10-06T00:22:49.943Z,98059.63
2022-10-06T00:23:51.446Z,98055.47
2022-10-06T00:24:52.947Z,98060.34
2022-10-06T00:25:54.697Z,98060.16
2022-10-06T00:26:56.233Z,98061.75
2022-10-06T00:27:57.933Z,98057.78
2022-10-06T00:28:59.509Z,98055.88
2022-10-06T00:30:01.033Z,98060.28
2022-10-06T00:31:03.008Z,98058.84
2022-10-06T00:32:04.630Z,98060.84
2022-10-06T00:33:06.186Z,98055.84
2022-10-06T00:34:07.737Z,98050.84
2022-10-06T00:35:09.981Z,98052.75
2022-10-06T00:36:11.867Z,98046.59
2022-10-06T00:37:13.389Z,98050.69
2022-10-06T00:38:16.610Z,98054.75
2022-10-06T00:39:19.924Z,98053.66
2022-10-06T00:40:22.680Z,98050.47
2022-10-06T00:41:24.197Z,98045.22
2022-10-06T00:42:29.008Z,98047.53
2022-10-06T00:43:53.362Z,98043.88
2022-10-06T00:44:57.687Z,98041.09
2022-10-06T00:45:59.337Z,98044.59
2022-10-06T00:47:00.894Z,98047.38
2022-10-06T00:48:23.664Z,98045.91
2022-10-06T00:49:30.686Z,98040.66
2022-10-06T00:50:32.370Z,98036.59
2022-10-06T00:51:36.331Z,98037.56
2022-10-06T00:52:39.630Z,98038.88
2022-10-06T00:53:42.567Z,98039.44
2022-10-06T00:54:44.636Z,98039.75
2022-10-06T00:55:46.184Z,98036.38
2022-10-06T00:56:48.205Z,98041.03
2022-10-06T00:57:52.372Z,98036.38
2022-10-06T00:58:53.867Z,98038.69
2022-10-06T00:59:55.572Z,98041.66
2022-10-06T01:00:59.239Z,98033.91
2022-10-06T01:02:32.030Z,98032.91
2022-10-06T01:03:45.995Z,98034.41
2022-10-06T01:04:55.678Z,98032.47
2022-10-06T01:05:59.632Z,98033.38
2022-10-06T01:07:01.965Z,98035.34
2022-10-06T01:08:03.522Z,98032.53
2022-10-06T01:09:05.284Z,98030.72
2022-10-06T01:10:07.062Z,98030.59
2022-10-06T01:11:16.383Z,98024.03
2022-10-06T01:12:19.425Z,98030.38
2022-10-06T01:13:21.537Z,98021.59
2022-10-06T01:14:24.683Z,98032.69
2022-10-06T01:15:28.280Z,98029.88
2022-10-06T01:16:35.353Z,98026.72
2022-10-06T01:17:44.085Z,98024.69
2022-10-06T01:18:47.912Z,98020.50
2022-10-06T01:19:56.876Z,98023.88
2022-10-06T01:21:10.399Z,98024.50
2022-10-06T01:22:15.858Z,98026.50
2022-10-06T01:23:18.158Z,98032.75
2022-10-06T01:24:19.740Z,98026.31
2022-10-06T01:25:22.346Z,98031.28
2022-10-06T01:26:25.473Z,98031.78
2022-10-06T01:27:30.451Z,98032.47
2022-10-06T01:28:33.086Z,98031.59
2022-10-06T01:29:35.974Z,98033.19
2022-10-06T01:30:52.043Z,98030.91
2022-10-06T01:31:54.027Z,98036.66
2022-10-06T01:32:55.941Z,98026.59
2022-10-06T01:33:57.915Z,98031.00
2022-10-06T01:34:59.499Z,98033.41
2022-10-06T01:36:01.029Z,98033.41
2022-10-06T01:37:02.566Z,98033.69
2022-10-06T01:38:04.124Z,98034.50
2022-10-06T01:39:05.643Z,98038.66
2022-10-06T01:40:07.548Z,98031.81
2022-10-06T01:41:09.064Z,98028.94
2022-10-06T01:42:11.214Z,98029.34
2022-10-06T01:43:13.255Z,98028.31
2022-10-06T01:44:15.062Z,98032.72
2022-10-06T01:45:16.817Z,98028.72
2022-10-06T01:46:18.361Z,98026.03
2022-10-06T01:47:19.945Z,98026.94
2022-10-06T01:48:22.480Z,98022.19
2022-10-06T01:49:24.002Z,98022.19
2022-10-06T01:50:25.537Z,98019.78
2022-10-06T01:51:27.046Z,98024.34
2022-10-06T01:52:28.607Z,98020.59
2022-10-06T01:53:30.181Z,98018.44
2022-10-06T01:54:31.796Z,98027.63
2022-10-06T01:55:33.345Z,98023.59
2022-10-06T01:56:34.879Z,98023.28
2022-10-06T01:57:41.451Z,98028.63
2022-10-06T01:58:43.093Z,98023.97
2022-10-06T01:59:44.671Z,98023.59
2022-10-06T02:00:46.207Z,98017.84
2022-10-06T02:01:47.768Z,98014.47
2022-10-06T02:02:50.787Z,98025.34
2022-10-06T02:03:52.300Z,98024.69
2022-10-06T02:04:53.867Z,98020.19
2022-10-06T02:05:57.061Z,98025.38
2022-10-06T02:06:59.031Z,98020.19
2022-10-06T02:08:01.608Z,98021.19
2022-10-06T02:09:03.414Z,98030.34
2022-10-06T02:10:06.400Z,98023.78
2022-10-06T02:11:12.214Z,98026.16
2022-10-06T02:12:13.737Z,98027.75
2022-10-06T02:13:15.279Z,98029.72
2022-10-06T02:14:18.126Z,98032.56
2022-10-06T02:15:20.844Z,98030.13
2022-10-06T02:16:22.880Z,98023.19
2022-10-06T02:17:24.767Z,98029.31
2022-10-06T02:18:27.225Z,98027.47
2022-10-06T02:19:29.069Z,98027.34
2022-10-06T02:20:30.637Z,98026.13
2022-10-06T02:21:32.377Z,98026.53
2022-10-06T02:22:39.031Z,98025.38
2022-10-06T02:23:40.626Z,98028.53
2022-10-06T02:24:42.182Z,98022.09
2022-10-06T02:25:43.725Z,98022.41
2022-10-06T02:26:45.294Z,98023.78
2022-10-06T02:27:47.520Z,98020.09
2022-10-06T02:28:52.012Z,98030.91
2022-10-06T02:29:53.547Z,98026.53
2022-10-06T02:30:56.884Z,98023.97
2022-10-06T02:31:58.448Z,98024.16
2022-10-06T02:33:00.022Z,98019.81
2022-10-06T02:34:02.337Z,98017.41
2022-10-06T02:35:04.771Z,98023.84
2022-10-06T02:36:08.036Z,98017.41
2022-10-06T02:37:10.709Z,98021.09
2022-10-06T02:38:12.639Z,98025.56
2022-10-06T02:39:14.173Z,98020.88
2022-10-06T02:40:16.781Z,98017.13
2022-10-06T02:41:18.337Z,98018.22
2022-10-06T02:42:19.881Z,98019.81
2022-10-06T02:43:22.038Z,98016.81
2022-10-06T02:44:25.090Z,98020.78
2022-10-06T02:45:26.676Z,98020.19
2022-10-06T02:46:28.291Z,98020.78
2022-10-06T02:47:32.565Z,98022.97
2022-10-06T02:48:34.977Z,98021.28
2022-10-06T02:49:36.519Z,98015.81
2022-10-06T02:50:41.328Z,98016.50
2022-10-06T02:51:42.816Z,98020.75
2022-10-06T02:52:45.242Z,98018.84
2022-10-06T02:53:48.605Z,98019.34
2022-10-06T02:54:50.737Z,98019.84
2022-10-06T02:56:04.613Z,98017.94
2022-10-06T02:57:06.188Z,98017.66
2022-10-06T02:58:07.704Z,98024.50
2022-10-06T02:59:09.196Z,98018.03
2022-10-06T03:00:11.623Z,98022.78
2022-10-06T03:01:16.994Z,98023.59
2022-10-06T03:02:18.794Z,98024.38
2022-10-06T03:03:20.502Z,98026.44
2022-10-06T03:04:22.017Z,98025.84
2022-10-06T03:05:23.582Z,98025.22
2022-10-06T03:06:27.891Z,98019.28
2022-10-06T03:07:29.460Z,98024.81
2022-10-06T03:08:31.472Z,98021.22
2022-10-06T03:09:33.127Z,98019.50
2022-10-06T03:10:34.622Z,98022.81
2022-10-06T03:11:42.646Z,98025.00
2022-10-06T03:12:44.214Z,98021.34
2022-10-06T03:13:51.613Z,98019.44
2022-10-06T03:14:53.143Z,98017.88
2022-10-06T03:15:54.723Z,98020.53
2022-10-06T03:16:57.340Z,98008.22
2022-10-06T03:17:59.121Z,98012.31
2022-10-06T03:19:01.322Z,98010.72
2022-10-06T03:20:03.998Z,98012.13
2022-10-06T03:21:05.528Z,98012.84
2022-10-06T03:22:07.176Z,98016.94
2022-10-06T03:23:13.348Z,98017.75
2022-10-06T03:24:15.965Z,98012.03
2022-10-06T03:25:17.466Z,98014.72
2022-10-06T03:26:21.787Z,98018.16
2022-10-06T03:27:23.337Z,98016.91
2022-10-06T03:28:25.039Z,98018.59
2022-10-06T03:29:26.980Z,98025.63
2022-10-06T03:30:28.526Z,98021.41
2022-10-06T03:31:30.289Z,98022.47
2022-10-06T03:32:31.940Z,98022.09
2022-10-06T03:33:34.776Z,98012.78
2022-10-06T03:34:37.238Z,98014.38
2022-10-06T03:35:38.980Z,98013.47
2022-10-06T03:36:41.456Z,98013.94
2022-10-06T03:37:42.997Z,98013.47
2022-10-06T03:38:44.729Z,98013.75
2022-10-06T03:39:46.283Z,98024.19
2022-10-06T03:40:47.797Z,98025.44
2022-10-06T03:41:49.497Z,98017.59
2022-10-06T03:42:51.023Z,98018.91
2022-10-06T03:43:54.418Z,98022.38
2022-10-06T03:44:55.925Z,98027.13
2022-10-06T03:45:59.206Z,98024.66
2022-10-06T03:47:00.868Z,98027.41
2022-10-06T03:48:02.459Z,98021.41
2022-10-06T03:49:05.247Z,98022.53
2022-10-06T03:50:07.312Z,98021.53
2022-10-06T03:51:15.151Z,98023.41
2022-10-06T03:52:16.655Z,98022.94
2022-10-06T03:53:18.335Z,98029.28
2022-10-06T03:54:20.107Z,98024.72
2022-10-06T03:55:22.074Z,98025.34
2022-10-06T03:56:28.495Z,98021.34
2022-10-06T03:57:30.008Z,98028.13
2022-10-06T03:58:33.569Z,98030.50
2022-10-06T03:59:35.114Z,98025.91
2022-10-06T04:00:36.687Z,98023.25
2022-10-06T04:01:44.998Z,98028.59
2022-10-06T04:02:46.582Z,98028.72
2022-10-06T04:03:48.264Z,98024.53
2022-10-06T04:04:49.811Z,98025.97
2022-10-06T04:05:56.531Z,98026.75
2022-10-06T04:06:58.189Z,98028.31
2022-10-06T04:07:59.697Z,98028.03
2022-10-06T04:09:02.004Z,98027.72
2022-10-06T04:10:03.703Z,98022.38
2022-10-06T04:11:22.703Z,98025.56
2022-10-06T04:12:24.234Z,98033.09
2022-10-06T04:13:25.760Z,98029.31
2022-10-06T04:14:27.335Z,98027.78
2022-10-06T04:15:28.838Z,98032.69
2022-10-06T04:16:32.600Z,98031.09
2022-10-06T04:17:34.167Z,98031.72
2022-10-06T04:18:35.702Z,98029.16
2022-10-06T04:19:37.555Z,98030.75
2022-10-06T04:20:39.844Z,98027.72
2022-10-06T04:21:43.764Z,98025.75
2022-10-06T04:22:45.316Z,98028.22
2022-10-06T04:23:47.210Z,98034.69
2022-10-06T04:24:48.727Z,98033.91
2022-10-06T04:25:55.152Z,98024.16
2022-10-06T04:27:17.463Z,98025.25
2022-10-06T04:28:19.021Z,98030.03
2022-10-06T04:29:21.098Z,98024.16
2022-10-06T04:30:22.648Z,98022.38
2022-10-06T04:31:26.773Z,98032.91
2022-10-06T04:32:29.703Z,98032.13
2022-10-06T04:33:34.255Z,98024.88
2022-10-06T04:34:35.774Z,98025.34
2022-10-06T04:35:37.286Z,98027.47
2022-10-06T04:36:41.153Z,98026.25
2022-10-06T04:37:42.795Z,98021.91
2022-10-06T04:38:44.386Z,98027.16
2022-10-06T04:39:45.964Z,98022.25
2022-10-06T04:40:47.505Z,98028.63
2022-10-06T04:41:49.024Z,98021.41
2022-10-06T04:42:50.601Z,98030.22
2022-10-06T04:43:52.611Z,98023.69
2022-10-06T04:44:54.337Z,98029.03
2022-10-06T04:45:57.918Z,98030.31
2022-10-06T04:47:01.268Z,98025.44
2022-10-06T04:48:02.829Z,98025.97
2022-10-06T04:49:04.501Z,98026.97
2022-10-06T04:50:06.380Z,98028.75
2022-10-06T04:51:14.494Z,98028.75
2022-10-06T04:52:16.024Z,98030.91
2022-10-06T04:53:17.533Z,98027.94
2022-10-06T04:54:19.463Z,98030.03
2022-10-06T04:55:21.073Z,98036.88
2022-10-06T04:56:25.288Z,98028.72
2022-10-06T04:57:27.783Z,98033.50
2022-10-06T04:58:37.230Z,98034.16
2022-10-06T04:59:59.514Z,98031.69
2022-10-06T05:01:14.557Z,98035.34
2022-10-06T05:02:16.208Z,98039.59
2022-10-06T05:03:17.827Z,98034.25
2022-10-06T05:04:19.787Z,98034.72
2022-10-06T05:05:21.684Z,98037.91
2022-10-06T05:06:27.726Z,98035.41
2022-10-06T05:07:29.625Z,98040.59
2022-10-06T05:08:31.731Z,98042.66
2022-10-06T05:09:34.673Z,98034.03
2022-10-06T05:10:36.207Z,98043.94
2022-10-06T05:11:38.316Z,98042.19
2022-10-06T05:12:40.091Z,98032.84
2022-10-06T05:13:42.157Z,98037.28
2022-10-06T05:14:46.799Z,98035.84
2022-10-06T05:15:59.317Z,98032.03
2022-10-06T05:17:01.024Z,98034.31
2022-10-06T05:18:02.783Z,98035.78
2022-10-06T05:19:04.319Z,98036.38
2022-10-06T05:20:06.404Z,98033.28
2022-10-06T05:21:12.287Z,98030.19
2022-10-06T05:22:13.835Z,98029.16
2022-10-06T05:23:15.355Z,98030.41
2022-10-06T05:24:17.452Z,98030.75
2022-10-06T05:25:19.096Z,98033.50
2022-10-06T05:26:23.479Z,98029.31
2022-10-06T05:27:25.008Z,98034.25
2022-10-06T05:28:28.950Z,98040.81
2022-10-06T05:29:30.826Z,98033.63
2022-10-06T05:30:32.385Z,98038.88
2022-10-06T05:31:38.877Z,98039.75
2022-10-06T05:32:40.610Z,98042.41
2022-10-06T05:33:42.390Z,98044.69
2022-10-06T05:34:43.901Z,98043.19
2022-10-06T05:35:56.355Z,98036.59
2022-10-06T05:36:57.871Z,98040.63
2022-10-06T05:37:59.398Z,98042.59
2022-10-06T05:39:01.721Z,98040.75
2022-10-06T05:40:03.374Z,98041.72
2022-10-06T05:41:18.747Z,98047.31
2022-10-06T05:42:20.768Z,98042.66
2022-10-06T05:43:22.409Z,98047.25
2022-10-06T05:44:24.033Z,98054.59
2022-10-06T05:45:25.538Z,98042.63
2022-10-06T05:46:30.355Z,98045.66
2022-10-06T05:47:32.137Z,98045.88
2022-10-06T05:48:33.974Z,98050.16
2022-10-06T05:49:35.551Z,98047.63
2022-10-06T05:50:37.398Z,98043.03
2022-10-06T05:51:41.916Z,98045.34
2022-10-06T05:52:43.417Z,98034.94
2022-10-06T05:53:45.792Z,98048.13
2022-10-06T05:54:47.320Z,98046.31
2022-10-06T05:55:48.844Z,98039.25
2022-10-06T05:56:50.467Z,98041.50
2022-10-06T05:57:54.618Z,98036.78
2022-10-06T05:58:57.818Z,98043.16
2022-10-06T05:59:59.743Z,98049.97
2022-10-06T06:01:16.275Z,98045.09
2022-10-06T06:02:17.991Z,98054.28
2022-10-06T06:03:19.619Z,98047.91
2022-10-06T06:04:21.186Z,98050.81
2022-10-06T06:05:22.708Z,98048.09
2022-10-06T06:06:30.473Z,98057.72
2022-10-06T06:07:32.545Z,98053.78
2022-10-06T06:08:34.113Z,98059.19
2022-10-06T06:09:35.767Z,98060.94
2022-10-06T06:10:37.597Z,98061.56
2022-10-06T06:11:41.802Z,98054.56
2022-10-06T06:12:43.328Z,98053.56
2022-10-06T06:13:44.992Z,98053.22
2022-10-06T06:15:04.950Z,98062.84
2022-10-06T06:16:10.738Z,98046.91
2022-10-06T06:17:12.288Z,98045.16
2022-10-06T06:18:13.794Z,98046.00
2022-10-06T06:19:15.369Z,98046.56
2022-10-06T06:20:16.953Z,98048.69
2022-10-06T06:21:18.618Z,98043.59
2022-10-06T06:22:20.307Z,98057.13
2022-10-06T06:23:21.817Z,98054.13
2022-10-06T06:24:23.340Z,98050.56
2022-10-06T06:25:24.903Z,98052.00
2022-10-06T06:26:29.025Z,98046.59
2022-10-06T06:27:30.567Z,98044.63
2022-10-06T06:28:32.758Z,98052.94
2022-10-06T06:29:34.643Z,98050.91
2022-10-06T06:30:36.203Z,98054.06
2022-10-06T06:31:40.050Z,98060.03
2022-10-06T06:32:41.655Z,98054.09
2022-10-06T06:33:43.815Z,98054.19
2022-10-06T06:34:45.347Z,98056.47
2022-10-06T06:35:46.857Z,98059.50
2022-10-06T06:36:53.639Z,98060.97
2022-10-06T06:37:55.292Z,98057.28
2022-10-06T06:38:58.248Z,98056.94
2022-10-06T06:39:59.917Z,98064.91
2022-10-06T06:41:01.441Z,98057.69
2022-10-06T06:42:05.157Z,98054.50
2022-10-06T06:43:06.742Z,98059.63
2022-10-06T06:44:11.212Z,98054.75
2022-10-06T06:45:14.166Z,98058.09
2022-10-06T06:46:17.847Z,98060.97
2022-10-06T06:47:24.406Z,98062.28
2022-10-06T06:48:28.532Z,98060.97
2022-10-06T06:49:30.378Z,98060.28
2022-10-06T06:50:32.664Z,98061.50
2022-10-06T06:51:37.297Z,98056.03
2022-10-06T06:52:38.938Z,98061.50
2022-10-06T06:53:41.041Z,98058.88
2022-10-06T06:54:42.601Z,98053.25
2022-10-06T06:55:54.169Z,98052.66
2022-10-06T06:56:56.661Z,98050.25
2022-10-06T06:57:58.166Z,98052.94
2022-10-06T06:58:59.686Z,98049.13
2022-10-06T07:00:08.028Z,98052.59
2022-10-06T07:01:14.173Z,98041.13
2022-10-06T07:02:15.804Z,98036.63
2022-10-06T07:03:38.474Z,98043.50
2022-10-06T07:04:41.766Z,98043.50
2022-10-06T07:05:46.352Z,98038.41
2022-10-06T07:06:53.406Z,98042.03
2022-10-06T07:07:54.992Z,98035.47
2022-10-06T07:09:00.229Z,98036.16
2022-10-06T07:10:01.996Z,98033.28
2022-10-06T07:11:22.093Z,98036.25
2022-10-06T07:12:25.190Z,98038.56
2022-10-06T07:13:26.718Z,98033.78
2022-10-06T07:14:28.319Z,98033.78
2022-10-06T07:15:48.710Z,98033.28
2022-10-06T07:17:08.825Z,98032.63
2022-10-06T07:18:28.871Z,98035.66
2022-10-06T07:19:43.032Z,98030.97
2022-10-06T07:21:03.097Z,98026.94
2022-10-06T07:22:32.181Z,98025.75
2022-10-06T07:23:52.156Z,98022.41
2022-10-06T07:25:07.514Z,98023.09
2022-10-06T07:26:09.171Z,98029.84
2022-10-06T07:27:11.291Z,98023.53
2022-10-06T07:28:12.886Z,98025.53
2022-10-06T07:29:14.460Z,98026.88
2022-10-06T07:30:19.462Z,98022.84
2022-10-06T07:31:21.189Z,98018.78
2022-10-06T07:32:25.070Z,98014.94
2022-10-06T07:33:32.361Z,98014.94
2022-10-06T07:34:33.928Z,98012.63
2022-10-06T07:35:35.486Z,98013.97
2022-10-06T07:36:37.054Z,98014.41
2022-10-06T07:37:39.150Z,98015.50
2022-10-06T07:38:41.554Z,98017.69
2022-10-06T07:39:49.526Z,98012.19
2022-10-06T07:41:17.749Z,98011.00
2022-10-06T07:42:17.872Z,98011.81
2022-10-06T07:43:19.379Z,98003.72
2022-10-06T07:44:21.506Z,97998.13
2022-10-06T07:45:45.081Z,97996.88
2022-10-06T07:46:46.789Z,98003.84
2022-10-06T07:47:48.293Z,98006.31
2022-10-06T07:48:49.805Z,97994.75
2022-10-06T07:49:51.316Z,97999.22
2022-10-06T07:50:53.335Z,97992.94
2022-10-06T07:51:54.914Z,97992.94
2022-10-06T07:52:56.496Z,97991.88
2022-10-06T07:53:58.057Z,97989.25
2022-10-06T07:54:59.581Z,97987.91
2022-10-06T07:56:05.702Z,97992.47
2022-10-06T07:57:07.231Z,97993.59
2022-10-06T07:58:14.025Z,97988.78
2022-10-06T07:59:15.545Z,97991.22
2022-10-06T08:00:20.429Z,97987.47
2022-10-06T08:01:22.140Z,97981.34
2022-10-06T08:02:29.243Z,97981.63
2022-10-06T08:03:33.187Z,97982.66
2022-10-06T08:04:34.718Z,97981.09
2022-10-06T08:05:36.280Z,97979.69
2022-10-06T08:06:38.584Z,97984.91
2022-10-06T08:07:40.800Z,97978.91
2022-10-06T08:08:44.077Z,97976.72
2022-10-06T08:09:45.588Z,97979.94
2022-10-06T08:10:56.808Z,97987.47
2022-10-06T08:11:58.380Z,97968.28
2022-10-06T08:13:01.281Z,97974.75
2022-10-06T08:14:02.834Z,97975.66
2022-10-06T08:15:07.573Z,97976.19
2022-10-06T08:16:13.094Z,97976.47
2022-10-06T08:17:14.803Z,97962.19
2022-10-06T08:18:41.155Z,97969.78
2022-10-06T08:19:38.557Z,97960.59
2022-10-06T08:20:41.024Z,97966.28
2022-10-06T08:21:42.536Z,97968.06
2022-10-06T08:22:44.096Z,97967.00
2022-10-06T08:23:47.624Z,97962.38
2022-10-06T08:25:05.188Z,97961.50
2022-10-06T08:26:07.125Z,97946.25
2022-10-06T08:27:09.743Z,97954.41
2022-10-06T08:28:12.429Z,97953.59
2022-10-06T08:29:13.961Z,97961.06
2022-10-06T08:30:15.518Z,97956.41
2022-10-06T08:31:19.241Z,97955.38
2022-10-06T08:32:22.223Z,97959.63
2022-10-06T08:33:23.811Z,97957.09
2022-10-06T08:34:25.391Z,97948.81
2022-10-06T08:35:27.219Z,97953.06
2022-10-06T08:36:31.868Z,97953.75
2022-10-06T08:37:34.125Z,97960.06
2022-10-06T08:38:37.495Z,97956.03
2022-10-06T08:39:39.012Z,97957.34
2022-10-06T08:40:49.639Z,97952.53
2022-10-06T08:41:53.197Z,97951.81
2022-10-06T08:43:01.018Z,97956.03
2022-10-06T08:44:08.604Z,97957.63
2022-10-06T08:45:17.767Z,97952.00
2022-10-06T08:46:24.682Z,97953.34
2022-10-06T08:47:33.922Z,97949.84
2022-10-06T08:48:38.758Z,97949.22
2022-10-06T08:49:46.309Z,97942.56
2022-10-06T08:50:59.714Z,97950.22
2022-10-06T08:52:14.267Z,97945.47
2022-10-06T08:53:39.393Z,97945.16
2022-10-06T08:54:58.907Z,97940.00
2022-10-06T08:56:11.054Z,97941.31
2022-10-06T08:57:15.706Z,97944.22
2022-10-06T08:58:23.183Z,97935.25
2022-10-06T08:59:25.014Z,97936.22
2022-10-06T09:00:29.498Z,97937.50
2022-10-06T09:01:40.265Z,97934.75
2022-10-06T09:02:49.049Z,97932.31
2022-10-06T09:03:56.411Z,97933.28
2022-10-06T09:05:01.348Z,97937.59
2022-10-06T09:06:31.464Z,97927.03
2022-10-06T09:08:13.597Z,97942.31
2022-10-06T09:09:21.361Z,97929.59
2022-10-06T09:10:36.011Z,97928.75
2022-10-06T09:11:55.003Z,97933.47
2022-10-06T09:13:02.830Z,97930.66
2022-10-06T09:14:17.402Z,97920.63
2022-10-06T09:15:55.840Z,97919.19
2022-10-06T09:17:02.007Z,97913.84
2022-10-06T09:18:10.734Z,97914.44
2022-10-06T09:19:40.129Z,97912.25
2022-10-06T09:20:55.033Z,97907.75
2022-10-06T09:22:00.101Z,97905.03
2022-10-06T09:23:05.120Z,97906.03
2022-10-06T09:24:13.796Z,97905.72
2022-10-06T09:25:22.176Z,97905.63
2022-10-06T09:26:30.200Z,97905.19
2022-10-06T09:27:37.424Z,97910.53
2022-10-06T09:28:39.307Z,97901.19
2022-10-06T09:29:40.876Z,97902.25
2022-10-06T09:30:43.386Z,97903.28
2022-10-06T09:31:50.507Z,97895.28
2022-10-06T09:33:00.602Z,97895.22
2022-10-06T09:34:09.308Z,97899.31
2022-10-06T09:35:22.392Z,97898.59
2022-10-06T09:36:24.293Z,97901.06
2022-10-06T09:37:26.997Z,97890.88
2022-10-06T09:38:47.685Z,97891.22
2022-10-06T09:39:51.463Z,97887.72
2022-10-06T09:40:54.559Z,97888.06
2022-10-06T09:41:56.584Z,97884.31
2022-10-06T09:42:58.146Z,97883.69
2022-10-06T09:44:04.728Z,97883.88
2022-10-06T09:45:25.470Z,97880.13
2022-10-06T09:46:31.573Z,97879.03
2022-10-06T09:47:35.111Z,97875.88
2022-10-06T09:48:37.038Z,97870.69
2022-10-06T09:49:38.595Z,97877.56
2022-10-06T09:50:40.797Z,97874.09
2022-10-06T09:52:01.241Z,97878.63
2022-10-06T09:53:11.225Z,97870.28
2022-10-06T09:54:14.903Z,97866.38
2022-10-06T09:55:19.077Z,97869.38
2022-10-06T09:56:20.703Z,97867.81
2022-10-06T09:57:26.599Z,97872.13
2022-10-06T09:58:38.075Z,97866.38
2022-10-06T09:59:45.404Z,97874.75
2022-10-06T10:01:00.247Z,97863.59
2022-10-06T10:02:04.530Z,97860.88
2022-10-06T10:03:09.225Z,97866.84
2022-10-06T10:04:20.637Z,97855.38
2022-10-06T10:05:23.519Z,97856.63
2022-10-06T10:06:33.060Z,97853.91
2022-10-06T10:07:36.281Z,97857.06
2022-10-06T10:08:37.811Z,97853.25
2022-10-06T10:09:41.806Z,97857.78
2022-10-06T10:10:43.521Z,97858.09
2022-10-06T10:12:24.600Z,97850.94
2022-10-06T10:13:26.907Z,97848.63
2022-10-06T10:14:36.644Z,97844.97
2022-10-06T10:15:53.626Z,97842.03
2022-10-06T10:16:55.329Z,97835.69
2022-10-06T10:18:05.341Z,97836.44
2022-10-06T10:19:20.341Z,97835.81
2022-10-06T10:20:24.649Z,97834.97
2022-10-06T10:21:29.936Z,97832.09
2022-10-06T10:22:41.241Z,97837.84
2022-10-06T10:23:55.328Z,97832.69
2022-10-06T10:25:34.249Z,97825.09
2022-10-06T10:26:49.296Z,97832.00
2022-10-06T10:28:06.101Z,97819.94
2022-10-06T10:29:33.182Z,97820.31
2022-10-06T10:30:49.968Z,97817.34
2022-10-06T10:32:12.739Z,97814.81
2022-10-06T10:33:54.104Z,97813.56
2022-10-06T10:35:32.212Z,97804.72
2022-10-06T10:36:38.724Z,97807.44
2022-10-06T10:37:52.168Z,97806.66
2022-10-06T10:38:56.029Z,97798.03
2022-10-06T10:40:35.959Z,97799.75
2022-10-06T10:41:46.478Z,97803.75
2022-10-06T11:20:19.585Z,97746.78
2022-10-06T11:21:27.079Z,97748.03
2022-10-06T11:22:47.743Z,97750.44
2022-10-06T11:24:06.495Z,97750.31
2022-10-06T11:25:21.841Z,97744.47
2022-10-06T11:26:41.218Z,97742.59
2022-10-06T11:27:54.483Z,97738.03
2022-10-06T11:29:15.608Z,97734.72
2022-10-06T11:30:26.434Z,97735.28
2022-10-06T11:31:54.822Z,97731.00
2022-10-06T11:33:14.228Z,97724.41
2022-10-06T11:34:15.727Z,97722.09
2022-10-06T11:35:27.036Z,97722.81
2022-10-06T11:36:56.098Z,97716.66
2022-10-06T11:38:00.808Z,97719.41
2022-10-06T11:39:14.543Z,97717.56
2022-10-06T11:40:28.187Z,97712.47
2022-10-06T11:41:37.838Z,97711.63
2022-10-06T11:43:02.865Z,97715.06
2022-10-06T11:44:15.099Z,97710.31
2022-10-06T11:45:23.561Z,97704.88
2022-10-06T11:46:32.156Z,97704.44
2022-10-06T11:47:48.948Z,97701.72
2022-10-06T11:48:50.696Z,97704.84
2022-10-06T11:49:53.260Z,97705.66
2022-10-06T11:50:55.782Z,97698.72
2022-10-06T11:52:10.257Z,97703.00
2022-10-06T11:53:39.779Z,97698.41
2022-10-06T11:54:53.513Z,97689.09
2022-10-06T11:56:36.437Z,97691.00
2022-10-06T11:58:05.348Z,97686.31
2022-10-06T11:59:26.345Z,97684.81
2022-10-06T12:00:33.841Z,97678.97
2022-10-06T12:01:36.341Z,97691.88
2022-10-06T12:02:40.393Z,97675.63
2022-10-06T12:03:48.188Z,97680.69
2022-10-06T12:05:37.421Z,97673.69
2022-10-06T12:06:44.704Z,97671.72
2022-10-06T12:07:52.270Z,97675.25
2022-10-06T12:08:53.858Z,97674.44
2022-10-06T12:10:32.059Z,97675.88
2022-10-06T12:11:43.868Z,97673.97
2022-10-06T12:13:06.223Z,97670.88
2022-10-06T12:17:38.749Z,97663.59
2022-10-06T12:19:08.172Z,97652.63
2022-10-06T12:20:42.501Z,97649.16
2022-10-06T12:22:01.180Z,97651.50
2022-10-06T12:23:09.131Z,97648.41
2022-10-06T12:24:31.866Z,97641.84
2022-10-06T12:26:08.627Z,97646.19
2022-10-06T12:27:30.011Z,97642.34
2022-10-06T12:28:44.452Z,97634.53
2022-10-06T12:29:49.013Z,97636.88
2022-10-06T12:31:21.730Z,97639.25
2022-10-06T12:32:32.635Z,97630.66
2022-10-06T12:33:39.501Z,97630.28
2022-10-06T12:34:52.861Z,97632.25
2022-10-06T12:36:02.996Z,97633.81
2022-10-06T12:37:29.860Z,97626.06
2022-10-06T12:38:31.335Z,97624.16
2022-10-06T12:39:32.925Z,97626.13
2022-10-06T12:40:52.452Z,97618.72
2022-10-06T12:42:07.766Z,97625.75
2022-10-06T12:44:45.693Z,97621.53
2022-10-06T12:49:14.963Z,97611.03
2022-10-06T12:50:37.174Z,97608.31
2022-10-06T12:51:43.831Z,97607.13
2022-10-06T12:52:59.005Z,97605.94
2022-10-06T12:54:21.943Z,97607.50
2022-10-06T12:55:27.647Z,97604.41
2022-10-06T12:56:32.489Z,97604.78
2022-10-06T12:57:48.347Z,97596.59
2022-10-06T12:58:49.842Z,97599.69
2022-10-06T12:59:51.385Z,97598.13
2022-10-06T13:00:53.528Z,97599.31
2022-10-06T13:01:58.809Z,97597.75
2022-10-06T13:03:03.303Z,97595.06
2022-10-06T13:04:04.849Z,97590.38
2022-10-06T13:05:13.248Z,97589.59
2022-10-06T13:06:19.308Z,97581.03
2022-10-06T13:07:28.814Z,97585.72
2022-10-06T13:08:35.977Z,97587.28
2022-10-06T13:09:37.618Z,97589.66
2022-10-06T13:10:39.281Z,97584.97
2022-10-06T13:11:40.874Z,97592.75
2022-10-06T13:12:46.771Z,97586.91
2022-10-06T13:13:56.286Z,97580.28
2022-10-06T13:15:18.442Z,97582.97
2022-10-06T13:16:32.350Z,97588.47
2022-10-06T13:17:34.030Z,97584.16
2022-10-06T13:18:36.190Z,97585.31
2022-10-06T13:19:39.276Z,97577.91
2022-10-06T13:21:00.767Z,97574.81
2022-10-06T13:22:03.521Z,97574.03
2022-10-06T13:23:12.389Z,97577.94
2022-10-06T13:24:19.440Z,97574.03
2022-10-06T13:25:21.078Z,97577.16
2022-10-06T13:26:25.660Z,97565.84
2022-10-06T13:27:27.249Z,97570.13
2022-10-06T13:28:45.021Z,97570.91
2022-10-06T13:29:46.594Z,97574.81
2022-10-06T13:31:04.088Z,97573.25
2022-10-06T13:32:18.029Z,97572.09
2022-10-06T13:33:21.002Z,97565.44
2022-10-06T13:34:32.433Z,97563.13
2022-10-06T13:35:34.049Z,97561.16
2022-10-06T13:36:38.800Z,97563.91
2022-10-06T13:37:40.391Z,97560.38
2022-10-06T13:38:42.411Z,97552.16
2022-10-06T13:39:44.122Z,97550.56
2022-10-06T13:41:01.882Z,97557.63